sensor_id;sensor_type;location;lat;lon;timestamp;temperature;humidity
7588;DHT22;3835;48.850;8.938;2023-02-15T00:01:56;0.20;99.90
7588;DHT22;3835;48.850;8.938;2023-02-15T00:04:24;0.20;99.90
7588;DHT22;3835;48.850;8.938;2023-02-15T00:07:13;0.10;99.90
7588;DHT22;3835;48.850;8.938;2023-02-15T00:09:40;0.10;99.90
7588;DHT22;3835;48.850;8.938;2023-02-15T00:12:08;0.20;99.90
7588;DHT22;3835;48.850;8.938;2023-02-15T00:14:35;0.30;99.90
7588;DHT22;3835;48.850;8.938;2023-02-15T00:17:02;0.30;99.90
7588;DHT22;3835;48.850;8.938;2023-02-15T00:19:29;0.30;99.90
7588;DHT22;3835;48.850;8.938;2023-02-15T00:21:55;0.30;99.90
7588;DHT22;3835;48.850;8.938;2023-02-15T00:24:24;0.30;99.90
7588;DHT22;3835;48.850;8.938;2023-02-15T00:26:51;0.10;99.90
7588;DHT22;3835;48.850;8.938;2023-02-15T00:29:18;0.10;99.90
7588;DHT22;3835;48.850;8.938;2023-02-15T00:31:46;0.20;99.90
7588;DHT22;3835;48.850;8.938;2023-02-15T00:34:15;0.20;99.90
7588;DHT22;3835;48.850;8.938;2023-02-15T00:36:42;0.20;99.90
7588;DHT22;3835;48.850;8.938;2023-02-15T00:39:10;0.00;99.90
7588;DHT22;3835;48.850;8.938;2023-02-15T00:41:38;0.00;99.90
7588;DHT22;3835;48.850;8.938;2023-02-15T00:44:06;-0.10;99.90
7588;DHT22;3835;48.850;8.938;2023-02-15T00:46:33;-0.10;99.90
7588;DHT22;3835;48.850;8.938;2023-02-15T00:49:00;-0.10;99.90
7588;DHT22;3835;48.850;8.938;2023-02-15T00:51:28;-0.10;99.90
7588;DHT22;3835;48.850;8.938;2023-02-15T00:53:55;-0.20;99.90
7588;DHT22;3835;48.850;8.938;2023-02-15T00:56:22;-0.20;99.90
7588;DHT22;3835;48.850;8.938;2023-02-15T00:58:50;-0.30;99.90
7588;DHT22;3835;48.850;8.938;2023-02-15T01:01:18;-0.20;99.90
7588;DHT22;3835;48.850;8.938;2023-02-15T01:03:46;-0.30;99.90
7588;DHT22;3835;48.850;8.938;2023-02-15T01:06:13;-0.30;99.90
7588;DHT22;3835;48.850;8.938;2023-02-15T01:08:41;-0.40;99.90
7588;DHT22;3835;48.850;8.938;2023-02-15T01:11:10;-0.60;99.90
7588;DHT22;3835;48.850;8.938;2023-02-15T01:13:38;-0.90;99.90
7588;DHT22;3835;48.850;8.938;2023-02-15T01:16:07;-1.00;99.90
7588;DHT22;3835;48.850;8.938;2023-02-15T01:18:34;-0.90;99.90
7588;DHT22;3835;48.850;8.938;2023-02-15T01:21:09;-0.80;99.90
7588;DHT22;3835;48.850;8.938;2023-02-15T01:23:36;-0.80;99.90
7588;DHT22;3835;48.850;8.938;2023-02-15T01:26:02;-0.80;99.90
7588;DHT22;3835;48.850;8.938;2023-02-15T01:28:29;-0.80;99.90
7588;DHT22;3835;48.850;8.938;2023-02-15T01:30:57;-0.70;99.90
7588;DHT22;3835;48.850;8.938;2023-02-15T01:33:25;-0.80;99.90
7588;DHT22;3835;48.850;8.938;2023-02-15T01:35:56;-0.80;99.90
7588;DHT22;3835;48.850;8.938;2023-02-15T01:38:23;-0.80;99.90
7588;DHT22;3835;48.850;8.938;2023-02-15T01:40:50;-0.80;99.90
7588;DHT22;3835;48.850;8.938;2023-02-15T01:43:17;-0.70;99.90
7588;DHT22;3835;48.850;8.938;2023-02-15T01:45:45;-0.60;99.90
7588;DHT22;3835;48.850;8.938;2023-02-15T01:48:19;-0.60;99.90
7588;DHT22;3835;48.850;8.938;2023-02-15T01:50:49;-0.60;99.90
7588;DHT22;3835;48.850;8.938;2023-02-15T01:53:21;-0.60;99.90
7588;DHT22;3835;48.850;8.938;2023-02-15T01:55:53;-0.70;99.90
7588;DHT22;3835;48.850;8.938;2023-02-15T01:58:21;-0.60;99.90
7588;DHT22;3835;48.850;8.938;2023-02-15T02:00:48;-0.60;99.90
7588;DHT22;3835;48.850;8.938;2023-02-15T02:03:15;-0.50;99.90
7588;DHT22;3835;48.850;8.938;2023-02-15T02:05:42;-0.50;99.90
7588;DHT22;3835;48.850;8.938;2023-02-15T02:08:10;-0.40;99.90
7588;DHT22;3835;48.850;8.938;2023-02-15T02:10:37;-0.50;99.90
7588;DHT22;3835;48.850;8.938;2023-02-15T02:13:06;-0.50;99.90
7588;DHT22;3835;48.850;8.938;2023-02-15T02:15:40;-0.60;99.90
7588;DHT22;3835;48.850;8.938;2023-02-15T02:18:27;-0.50;99.90
7588;DHT22;3835;48.850;8.938;2023-02-15T02:21:09;-0.60;99.90
7588;DHT22;3835;48.850;8.938;2023-02-15T02:24:01;-0.60;99.90
7588;DHT22;3835;48.850;8.938;2023-02-15T02:30:23;-0.60;99.90
7588;DHT22;3835;48.850;8.938;2023-02-15T02:33:07;-0.60;99.90
7588;DHT22;3835;48.850;8.938;2023-02-15T02:35:44;-0.60;99.90
7588;DHT22;3835;48.850;8.938;2023-02-15T02:38:23;-0.60;99.90
7588;DHT22;3835;48.850;8.938;2023-02-15T02:40:58;-0.80;99.90
7588;DHT22;3835;48.850;8.938;2023-02-15T02:43:32;-0.90;99.90
7588;DHT22;3835;48.850;8.938;2023-02-15T02:46:02;-0.90;99.90
7588;DHT22;3835;48.850;8.938;2023-02-15T02:48:33;-0.90;99.90
7588;DHT22;3835;48.850;8.938;2023-02-15T02:51:00;-0.90;99.90
7588;DHT22;3835;48.850;8.938;2023-02-15T02:53:30;-0.90;99.90
7588;DHT22;3835;48.850;8.938;2023-02-15T02:56:01;-0.90;99.90
7588;DHT22;3835;48.850;8.938;2023-02-15T02:58:32;-0.90;99.90
7588;DHT22;3835;48.850;8.938;2023-02-15T03:01:05;-0.90;99.90
7588;DHT22;3835;48.850;8.938;2023-02-15T03:03:36;-0.90;99.90
7588;DHT22;3835;48.850;8.938;2023-02-15T03:06:06;-0.90;99.90
7588;DHT22;3835;48.850;8.938;2023-02-15T03:08:38;-1.00;99.90
7588;DHT22;3835;48.850;8.938;2023-02-15T03:11:07;-1.10;99.90
7588;DHT22;3835;48.850;8.938;2023-02-15T03:13:35;-1.10;99.90
7588;DHT22;3835;48.850;8.938;2023-02-15T03:16:03;-1.10;99.90
7588;DHT22;3835;48.850;8.938;2023-02-15T03:18:53;-1.10;99.90
7588;DHT22;3835;48.850;8.938;2023-02-15T03:21:27;-1.10;99.90
7588;DHT22;3835;48.850;8.938;2023-02-15T03:24:00;-1.10;99.90
7588;DHT22;3835;48.850;8.938;2023-02-15T03:26:30;-1.10;99.90
7588;DHT22;3835;48.850;8.938;2023-02-15T03:28:59;-1.20;99.90
7588;DHT22;3835;48.850;8.938;2023-02-15T03:31:32;-1.20;99.90
7588;DHT22;3835;48.850;8.938;2023-02-15T03:34:03;-1.20;99.90
7588;DHT22;3835;48.850;8.938;2023-02-15T03:36:36;-1.30;99.90
7588;DHT22;3835;48.850;8.938;2023-02-15T03:39:11;-1.40;99.90
7588;DHT22;3835;48.850;8.938;2023-02-15T03:41:41;-1.40;99.90
7588;DHT22;3835;48.850;8.938;2023-02-15T03:44:14;-1.50;99.90
7588;DHT22;3835;48.850;8.938;2023-02-15T03:46:45;-1.60;99.90
7588;DHT22;3835;48.850;8.938;2023-02-15T03:49:21;-1.70;99.90
7588;DHT22;3835;48.850;8.938;2023-02-15T03:51:50;-1.60;99.90
7588;DHT22;3835;48.850;8.938;2023-02-15T03:54:21;-1.70;99.90
7588;DHT22;3835;48.850;8.938;2023-02-15T03:57:03;-1.70;99.90
7588;DHT22;3835;48.850;8.938;2023-02-15T03:59:48;-1.70;99.90
7588;DHT22;3835;48.850;8.938;2023-02-15T04:02:38;-1.80;99.90
7588;DHT22;3835;48.850;8.938;2023-02-15T04:05:07;-1.90;99.90
7588;DHT22;3835;48.850;8.938;2023-02-15T04:07:34;-2.00;99.90
7588;DHT22;3835;48.850;8.938;2023-02-15T04:10:01;-2.10;99.90
7588;DHT22;3835;48.850;8.938;2023-02-15T04:12:44;-2.20;99.90
7588;DHT22;3835;48.850;8.938;2023-02-15T04:15:12;-2.20;99.90
7588;DHT22;3835;48.850;8.938;2023-02-15T04:17:56;-2.20;99.90
7588;DHT22;3835;48.850;8.938;2023-02-15T04:20:24;-2.30;99.90
7588;DHT22;3835;48.850;8.938;2023-02-15T04:23:09;-2.30;99.90
7588;DHT22;3835;48.850;8.938;2023-02-15T04:25:53;-2.30;99.90
7588;DHT22;3835;48.850;8.938;2023-02-15T04:28:19;-2.20;99.90
7588;DHT22;3835;48.850;8.938;2023-02-15T04:30:46;-2.20;99.90
7588;DHT22;3835;48.850;8.938;2023-02-15T04:33:13;-2.20;99.90
7588;DHT22;3835;48.850;8.938;2023-02-15T04:35:43;-2.20;99.90
7588;DHT22;3835;48.850;8.938;2023-02-15T04:38:10;-2.20;99.90
7588;DHT22;3835;48.850;8.938;2023-02-15T04:40:37;-2.20;99.90
7588;DHT22;3835;48.850;8.938;2023-02-15T04:43:03;-2.20;99.90
7588;DHT22;3835;48.850;8.938;2023-02-15T04:45:30;-2.20;99.90
7588;DHT22;3835;48.850;8.938;2023-02-15T04:47:57;-2.20;99.90
7588;DHT22;3835;48.850;8.938;2023-02-15T04:50:24;-2.10;99.90
7588;DHT22;3835;48.850;8.938;2023-02-15T04:52:52;-2.10;99.90
7588;DHT22;3835;48.850;8.938;2023-02-15T04:55:18;-2.30;99.90
7588;DHT22;3835;48.850;8.938;2023-02-15T04:57:46;-2.40;99.90
7588;DHT22;3835;48.850;8.938;2023-02-15T05:00:13;-2.30;99.90
7588;DHT22;3835;48.850;8.938;2023-02-15T05:02:40;-2.20;99.90
7588;DHT22;3835;48.850;8.938;2023-02-15T05:05:07;-2.20;99.90
7588;DHT22;3835;48.850;8.938;2023-02-15T05:07:34;-2.30;99.90
7588;DHT22;3835;48.850;8.938;2023-02-15T05:10:03;-2.30;99.90
7588;DHT22;3835;48.850;8.938;2023-02-15T05:12:30;-2.30;99.90
7588;DHT22;3835;48.850;8.938;2023-02-15T05:14:57;-2.40;99.90
7588;DHT22;3835;48.850;8.938;2023-02-15T05:17:23;-2.40;99.90
7588;DHT22;3835;48.850;8.938;2023-02-15T05:19:50;-2.40;99.90
7588;DHT22;3835;48.850;8.938;2023-02-15T05:22:17;-2.40;99.90
7588;DHT22;3835;48.850;8.938;2023-02-15T05:24:44;-2.50;99.90
7588;DHT22;3835;48.850;8.938;2023-02-15T05:27:29;-2.60;99.90
7588;DHT22;3835;48.850;8.938;2023-02-15T05:30:13;-2.70;99.90
7588;DHT22;3835;48.850;8.938;2023-02-15T05:32:40;-2.70;99.90
7588;DHT22;3835;48.850;8.938;2023-02-15T05:35:07;-2.80;99.90
7588;DHT22;3835;48.850;8.938;2023-02-15T05:37:34;-2.70;99.90
7588;DHT22;3835;48.850;8.938;2023-02-15T05:40:01;-2.60;99.90
7588;DHT22;3835;48.850;8.938;2023-02-15T05:42:29;-2.60;99.90
7588;DHT22;3835;48.850;8.938;2023-02-15T05:44:55;-2.60;99.90
7588;DHT22;3835;48.850;8.938;2023-02-15T05:47:22;-2.70;99.90
7588;DHT22;3835;48.850;8.938;2023-02-15T05:49:49;-2.70;99.90
7588;DHT22;3835;48.850;8.938;2023-02-15T05:52:16;-2.80;99.90
7588;DHT22;3835;48.850;8.938;2023-02-15T05:54:42;-2.80;99.90
7588;DHT22;3835;48.850;8.938;2023-02-15T05:57:09;-2.80;99.90
7588;DHT22;3835;48.850;8.938;2023-02-15T05:59:37;-3.00;99.90
7588;DHT22;3835;48.850;8.938;2023-02-15T06:02:04;-3.00;99.90
7588;DHT22;3835;48.850;8.938;2023-02-15T06:04:31;-2.90;99.90
7588;DHT22;3835;48.850;8.938;2023-02-15T06:06:58;-2.80;99.90
7588;DHT22;3835;48.850;8.938;2023-02-15T06:09:25;-2.80;99.90
7588;DHT22;3835;48.850;8.938;2023-02-15T06:11:52;-2.80;99.90
7588;DHT22;3835;48.850;8.938;2023-02-15T06:14:18;-2.80;99.90
7588;DHT22;3835;48.850;8.938;2023-02-15T06:16:46;-2.80;99.90
7588;DHT22;3835;48.850;8.938;2023-02-15T06:19:13;-2.70;99.90
7588;DHT22;3835;48.850;8.938;2023-02-15T06:21:40;-2.70;99.90
7588;DHT22;3835;48.850;8.938;2023-02-15T06:24:08;-2.80;99.90
7588;DHT22;3835;48.850;8.938;2023-02-15T06:26:34;-2.80;99.90
7588;DHT22;3835;48.850;8.938;2023-02-15T06:29:01;-2.90;99.90
7588;DHT22;3835;48.850;8.938;2023-02-15T06:31:28;-2.90;99.90
7588;DHT22;3835;48.850;8.938;2023-02-15T06:33:56;-2.90;99.90
7588;DHT22;3835;48.850;8.938;2023-02-15T06:36:26;-2.90;99.90
7588;DHT22;3835;48.850;8.938;2023-02-15T06:38:53;-2.90;99.90
7588;DHT22;3835;48.850;8.938;2023-02-15T06:41:20;-3.00;99.90
7588;DHT22;3835;48.850;8.938;2023-02-15T06:43:46;-3.10;99.90
7588;DHT22;3835;48.850;8.938;2023-02-15T06:46:13;-3.10;99.90
7588;DHT22;3835;48.850;8.938;2023-02-15T06:48:40;-3.20;99.90
7588;DHT22;3835;48.850;8.938;2023-02-15T06:51:08;-3.10;99.90
7588;DHT22;3835;48.850;8.938;2023-02-15T06:53:35;-3.10;99.90
7588;DHT22;3835;48.850;8.938;2023-02-15T06:56:02;-3.10;99.90
7588;DHT22;3835;48.850;8.938;2023-02-15T06:58:31;-3.00;99.90
7588;DHT22;3835;48.850;8.938;2023-02-15T07:00:58;-2.90;99.90
7588;DHT22;3835;48.850;8.938;2023-02-15T07:03:25;-2.90;99.90
7588;DHT22;3835;48.850;8.938;2023-02-15T07:05:54;-2.80;99.90
7588;DHT22;3835;48.850;8.938;2023-02-15T07:08:23;-2.80;99.90
7588;DHT22;3835;48.850;8.938;2023-02-15T07:10:50;-2.80;99.90
7588;DHT22;3835;48.850;8.938;2023-02-15T07:13:17;-2.80;99.90
7588;DHT22;3835;48.850;8.938;2023-02-15T07:15:44;-2.90;99.90
7588;DHT22;3835;48.850;8.938;2023-02-15T07:18:11;-3.00;99.90
7588;DHT22;3835;48.850;8.938;2023-02-15T07:20:38;-3.10;99.90
7588;DHT22;3835;48.850;8.938;2023-02-15T07:23:07;-3.00;99.90
7588;DHT22;3835;48.850;8.938;2023-02-15T07:25:35;-2.80;99.90
7588;DHT22;3835;48.850;8.938;2023-02-15T07:28:03;-2.80;99.90
7588;DHT22;3835;48.850;8.938;2023-02-15T07:30:30;-2.60;99.90
7588;DHT22;3835;48.850;8.938;2023-02-15T07:32:57;-2.50;99.90
7588;DHT22;3835;48.850;8.938;2023-02-15T07:35:46;-2.40;99.90
7588;DHT22;3835;48.850;8.938;2023-02-15T07:38:14;-2.30;99.90
7588;DHT22;3835;48.850;8.938;2023-02-15T07:40:42;-2.20;99.90
7588;DHT22;3835;48.850;8.938;2023-02-15T07:43:09;-2.30;99.90
7588;DHT22;3835;48.850;8.938;2023-02-15T07:45:35;-2.30;99.90
7588;DHT22;3835;48.850;8.938;2023-02-15T07:48:03;-2.10;99.90
7588;DHT22;3835;48.850;8.938;2023-02-15T07:50:30;-2.00;99.90
7588;DHT22;3835;48.850;8.938;2023-02-15T07:52:56;-2.00;99.90
7588;DHT22;3835;48.850;8.938;2023-02-15T07:55:23;-1.80;99.90
7588;DHT22;3835;48.850;8.938;2023-02-15T07:57:51;-1.80;99.90
7588;DHT22;3835;48.850;8.938;2023-02-15T08:00:20;-1.60;99.90
7588;DHT22;3835;48.850;8.938;2023-02-15T08:02:50;-1.50;99.90
7588;DHT22;3835;48.850;8.938;2023-02-15T08:05:38;-1.60;99.90
7588;DHT22;3835;48.850;8.938;2023-02-15T08:08:06;-1.60;99.90
7588;DHT22;3835;48.850;8.938;2023-02-15T08:10:33;-1.60;99.90
7588;DHT22;3835;48.850;8.938;2023-02-15T08:13:30;-1.80;99.90
7588;DHT22;3835;48.850;8.938;2023-02-15T08:15:57;-1.70;99.90
7588;DHT22;3835;48.850;8.938;2023-02-15T08:18:24;-1.70;99.90
7588;DHT22;3835;48.850;8.938;2023-02-15T08:20:51;-1.70;99.90
7588;DHT22;3835;48.850;8.938;2023-02-15T08:23:17;-1.70;99.90
7588;DHT22;3835;48.850;8.938;2023-02-15T08:25:44;-1.60;99.90
7588;DHT22;3835;48.850;8.938;2023-02-15T08:28:11;-1.50;99.90
7588;DHT22;3835;48.850;8.938;2023-02-15T08:30:39;-1.50;99.90
7588;DHT22;3835;48.850;8.938;2023-02-15T08:33:06;-1.30;99.90
7588;DHT22;3835;48.850;8.938;2023-02-15T08:35:35;-1.30;99.90
7588;DHT22;3835;48.850;8.938;2023-02-15T08:38:02;-1.10;99.90
7588;DHT22;3835;48.850;8.938;2023-02-15T08:40:28;-1.00;99.90
7588;DHT22;3835;48.850;8.938;2023-02-15T08:42:55;-0.90;99.90
7588;DHT22;3835;48.850;8.938;2023-02-15T08:45:22;-0.70;99.90
7588;DHT22;3835;48.850;8.938;2023-02-15T08:47:52;-0.50;99.90
7588;DHT22;3835;48.850;8.938;2023-02-15T08:50:19;-0.40;99.90
7588;DHT22;3835;48.850;8.938;2023-02-15T08:52:46;-0.40;99.90
7588;DHT22;3835;48.850;8.938;2023-02-15T08:55:13;-0.40;99.90
7588;DHT22;3835;48.850;8.938;2023-02-15T08:57:41;-0.50;99.90
7588;DHT22;3835;48.850;8.938;2023-02-15T09:00:11;-0.40;99.90
7588;DHT22;3835;48.850;8.938;2023-02-15T09:02:38;-0.30;99.90
7588;DHT22;3835;48.850;8.938;2023-02-15T09:05:07;-0.30;99.90
7588;DHT22;3835;48.850;8.938;2023-02-15T09:07:34;-0.40;99.90
7588;DHT22;3835;48.850;8.938;2023-02-15T09:10:01;-0.20;99.90
7588;DHT22;3835;48.850;8.938;2023-02-15T09:12:27;-0.30;99.90
7588;DHT22;3835;48.850;8.938;2023-02-15T09:14:54;-0.20;99.90
7588;DHT22;3835;48.850;8.938;2023-02-15T09:17:21;0.00;99.90
7588;DHT22;3835;48.850;8.938;2023-02-15T09:19:48;0.00;99.90
7588;DHT22;3835;48.850;8.938;2023-02-15T09:22:16;0.10;99.90
7588;DHT22;3835;48.850;8.938;2023-02-15T09:24:43;0.30;99.90
7588;DHT22;3835;48.850;8.938;2023-02-15T09:27:09;0.30;99.90
7588;DHT22;3835;48.850;8.938;2023-02-15T09:29:36;0.30;99.90
7588;DHT22;3835;48.850;8.938;2023-02-15T09:32:03;0.40;99.90
7588;DHT22;3835;48.850;8.938;2023-02-15T09:34:30;0.60;99.90
7588;DHT22;3835;48.850;8.938;2023-02-15T09:36:57;0.70;99.90
7588;DHT22;3835;48.850;8.938;2023-02-15T09:39:26;0.70;99.90
7588;DHT22;3835;48.850;8.938;2023-02-15T09:42:08;0.80;99.90
7588;DHT22;3835;48.850;8.938;2023-02-15T09:44:50;0.80;99.90
7588;DHT22;3835;48.850;8.938;2023-02-15T09:47:45;0.70;99.90
7588;DHT22;3835;48.850;8.938;2023-02-15T09:50:20;0.70;99.90
7588;DHT22;3835;48.850;8.938;2023-02-15T09:53:00;0.70;99.90
7588;DHT22;3835;48.850;8.938;2023-02-15T09:55:39;0.60;99.90
7588;DHT22;3835;48.850;8.938;2023-02-15T09:58:17;0.60;99.90
7588;DHT22;3835;48.850;8.938;2023-02-15T10:00:53;0.70;99.90
7588;DHT22;3835;48.850;8.938;2023-02-15T10:03:38;0.80;99.90
7588;DHT22;3835;48.850;8.938;2023-02-15T10:06:31;0.90;99.90
7588;DHT22;3835;48.850;8.938;2023-02-15T10:09:23;1.00;99.90
7588;DHT22;3835;48.850;8.938;2023-02-15T10:12:11;1.00;99.90
7588;DHT22;3835;48.850;8.938;2023-02-15T10:15:03;1.20;99.90
7588;DHT22;3835;48.850;8.938;2023-02-15T10:17:45;1.20;99.90
7588;DHT22;3835;48.850;8.938;2023-02-15T10:20:22;1.20;99.90
7588;DHT22;3835;48.850;8.938;2023-02-15T10:23:06;1.20;99.90
7588;DHT22;3835;48.850;8.938;2023-02-15T10:25:41;1.10;99.90
7588;DHT22;3835;48.850;8.938;2023-02-15T10:28:16;1.20;99.90
7588;DHT22;3835;48.850;8.938;2023-02-15T10:30:46;1.20;99.90
7588;DHT22;3835;48.850;8.938;2023-02-15T10:33:25;1.20;99.90
7588;DHT22;3835;48.850;8.938;2023-02-15T10:36:01;1.30;99.90
7588;DHT22;3835;48.850;8.938;2023-02-15T10:38:35;1.40;99.90
7588;DHT22;3835;48.850;8.938;2023-02-15T10:41:13;1.60;99.90
7588;DHT22;3835;48.850;8.938;2023-02-15T10:44:04;1.70;99.90
7588;DHT22;3835;48.850;8.938;2023-02-15T10:46:58;1.60;99.90
7588;DHT22;3835;48.850;8.938;2023-02-15T10:49:39;1.60;99.90
7588;DHT22;3835;48.850;8.938;2023-02-15T10:52:17;1.70;99.90
7588;DHT22;3835;48.850;8.938;2023-02-15T10:54:56;1.80;99.90
7588;DHT22;3835;48.850;8.938;2023-02-15T10:57:27;2.00;99.90
7588;DHT22;3835;48.850;8.938;2023-02-15T11:00:08;2.20;99.90
7588;DHT22;3835;48.850;8.938;2023-02-15T11:03:00;2.30;99.90
7588;DHT22;3835;48.850;8.938;2023-02-15T11:05:38;2.20;99.90
7588;DHT22;3835;48.850;8.938;2023-02-15T11:08:10;2.30;99.90
7588;DHT22;3835;48.850;8.938;2023-02-15T11:10:39;2.40;99.90
7588;DHT22;3835;48.850;8.938;2023-02-15T11:13:10;2.50;99.90
7588;DHT22;3835;48.850;8.938;2023-02-15T11:15:43;2.50;99.90
7588;DHT22;3835;48.850;8.938;2023-02-15T11:18:14;2.70;99.90
7588;DHT22;3835;48.850;8.938;2023-02-15T11:20:46;2.80;99.90
7588;DHT22;3835;48.850;8.938;2023-02-15T11:23:17;2.80;99.90
7588;DHT22;3835;48.850;8.938;2023-02-15T11:25:46;2.90;99.90
7588;DHT22;3835;48.850;8.938;2023-02-15T11:28:19;3.00;99.90
7588;DHT22;3835;48.850;8.938;2023-02-15T11:30:51;3.10;99.90
7588;DHT22;3835;48.850;8.938;2023-02-15T11:33:22;3.00;99.90
7588;DHT22;3835;48.850;8.938;2023-02-15T11:35:53;3.00;99.90
7588;DHT22;3835;48.850;8.938;2023-02-15T11:38:24;3.10;99.90
7588;DHT22;3835;48.850;8.938;2023-02-15T11:40:56;3.00;99.90
7588;DHT22;3835;48.850;8.938;2023-02-15T11:43:28;3.00;99.90
7588;DHT22;3835;48.850;8.938;2023-02-15T11:45:58;3.00;99.90
7588;DHT22;3835;48.850;8.938;2023-02-15T11:48:25;3.00;99.90
7588;DHT22;3835;48.850;8.938;2023-02-15T11:50:52;3.00;99.90
7588;DHT22;3835;48.850;8.938;2023-02-15T11:53:20;3.00;99.90
7588;DHT22;3835;48.850;8.938;2023-02-15T11:55:50;3.00;99.90
7588;DHT22;3835;48.850;8.938;2023-02-15T11:58:25;2.80;99.90
7588;DHT22;3835;48.850;8.938;2023-02-15T12:01:00;2.80;99.90
7588;DHT22;3835;48.850;8.938;2023-02-15T12:03:37;2.80;99.90
7588;DHT22;3835;48.850;8.938;2023-02-15T12:06:14;2.80;99.90
7588;DHT22;3835;48.850;8.938;2023-02-15T12:08:48;2.90;99.90
7588;DHT22;3835;48.850;8.938;2023-02-15T12:11:19;3.30;99.90
7588;DHT22;3835;48.850;8.938;2023-02-15T12:13:54;3.20;99.90
7588;DHT22;3835;48.850;8.938;2023-02-15T12:16:23;3.20;99.90
7588;DHT22;3835;48.850;8.938;2023-02-15T12:18:53;3.90;99.90
7588;DHT22;3835;48.850;8.938;2023-02-15T12:21:27;3.90;99.90
7588;DHT22;3835;48.850;8.938;2023-02-15T12:23:58;4.30;99.90
7588;DHT22;3835;48.850;8.938;2023-02-15T12:26:28;4.30;99.90
7588;DHT22;3835;48.850;8.938;2023-02-15T12:28:58;4.20;99.90
7588;DHT22;3835;48.850;8.938;2023-02-15T12:31:31;4.50;99.90
7588;DHT22;3835;48.850;8.938;2023-02-15T12:34:02;4.50;99.90
7588;DHT22;3835;48.850;8.938;2023-02-15T12:36:40;4.10;99.90
7588;DHT22;3835;48.850;8.938;2023-02-15T12:39:21;4.00;99.90
7588;DHT22;3835;48.850;8.938;2023-02-15T12:42:01;3.90;99.90
7588;DHT22;3835;48.850;8.938;2023-02-15T12:44:30;4.00;99.90
7588;DHT22;3835;48.850;8.938;2023-02-15T12:47:01;4.10;99.90
7588;DHT22;3835;48.850;8.938;2023-02-15T12:49:31;4.10;99.90
7588;DHT22;3835;48.850;8.938;2023-02-15T12:52:01;4.20;99.90
7588;DHT22;3835;48.850;8.938;2023-02-15T12:54:35;4.20;99.90
7588;DHT22;3835;48.850;8.938;2023-02-15T12:57:20;4.30;99.90
7588;DHT22;3835;48.850;8.938;2023-02-15T12:59:49;4.40;99.90
7588;DHT22;3835;48.850;8.938;2023-02-15T13:02:22;4.50;99.90
7588;DHT22;3835;48.850;8.938;2023-02-15T13:04:50;4.70;99.90
7588;DHT22;3835;48.850;8.938;2023-02-15T13:07:20;4.70;99.90
7588;DHT22;3835;48.850;8.938;2023-02-15T13:09:49;4.80;99.90
7588;DHT22;3835;48.850;8.938;2023-02-15T13:12:21;4.90;99.90
7588;DHT22;3835;48.850;8.938;2023-02-15T13:14:52;5.00;99.90
7588;DHT22;3835;48.850;8.938;2023-02-15T13:17:25;5.10;99.90
7588;DHT22;3835;48.850;8.938;2023-02-15T13:19:57;5.10;99.90
7588;DHT22;3835;48.850;8.938;2023-02-15T13:22:30;5.20;99.90
7588;DHT22;3835;48.850;8.938;2023-02-15T13:25:04;5.30;99.90
7588;DHT22;3835;48.850;8.938;2023-02-15T13:27:37;5.30;99.90
7588;DHT22;3835;48.850;8.938;2023-02-15T13:30:17;5.40;99.90
7588;DHT22;3835;48.850;8.938;2023-02-15T13:32:49;5.40;99.90
7588;DHT22;3835;48.850;8.938;2023-02-15T13:35:18;5.50;99.90
7588;DHT22;3835;48.850;8.938;2023-02-15T13:37:59;5.50;99.90
7588;DHT22;3835;48.850;8.938;2023-02-15T13:40:33;5.60;99.90
7588;DHT22;3835;48.850;8.938;2023-02-15T13:43:10;5.60;99.90
7588;DHT22;3835;48.850;8.938;2023-02-15T13:45:52;5.70;99.90
7588;DHT22;3835;48.850;8.938;2023-02-15T13:48:26;5.80;99.90
7588;DHT22;3835;48.850;8.938;2023-02-15T13:51:07;5.80;99.90
7588;DHT22;3835;48.850;8.938;2023-02-15T13:53:58;5.90;99.90
7588;DHT22;3835;48.850;8.938;2023-02-15T13:56:36;5.90;99.90
7588;DHT22;3835;48.850;8.938;2023-02-15T13:59:25;6.00;99.90
7588;DHT22;3835;48.850;8.938;2023-02-15T14:01:58;6.00;99.90
7588;DHT22;3835;48.850;8.938;2023-02-15T14:04:50;6.10;99.90
7588;DHT22;3835;48.850;8.938;2023-02-15T14:07:41;6.20;99.90
7588;DHT22;3835;48.850;8.938;2023-02-15T14:10:25;6.20;99.90
7588;DHT22;3835;48.850;8.938;2023-02-15T14:13:13;6.30;99.90
7588;DHT22;3835;48.850;8.938;2023-02-15T14:15:47;6.30;99.90
7588;DHT22;3835;48.850;8.938;2023-02-15T14:18:22;6.30;99.90
7588;DHT22;3835;48.850;8.938;2023-02-15T14:21:01;6.40;99.90
7588;DHT22;3835;48.850;8.938;2023-02-15T14:23:43;6.40;99.90
7588;DHT22;3835;48.850;8.938;2023-02-15T14:26:20;6.50;99.90
7588;DHT22;3835;48.850;8.938;2023-02-15T14:28:54;6.50;99.90
7588;DHT22;3835;48.850;8.938;2023-02-15T14:31:29;6.50;99.90
7588;DHT22;3835;48.850;8.938;2023-02-15T14:33:57;6.50;99.90
7588;DHT22;3835;48.850;8.938;2023-02-15T14:36:28;6.50;99.90
7588;DHT22;3835;48.850;8.938;2023-02-15T14:39:05;6.60;99.90
7588;DHT22;3835;48.850;8.938;2023-02-15T14:41:56;6.60;99.90
7588;DHT22;3835;48.850;8.938;2023-02-15T14:44:31;6.70;99.90
7588;DHT22;3835;48.850;8.938;2023-02-15T14:47:08;6.70;99.90
7588;DHT22;3835;48.850;8.938;2023-02-15T14:49:38;6.70;99.90
7588;DHT22;3835;48.850;8.938;2023-02-15T14:52:07;6.70;99.90
7588;DHT22;3835;48.850;8.938;2023-02-15T14:54:58;6.80;99.90
7588;DHT22;3835;48.850;8.938;2023-02-15T14:57:28;6.80;99.90
7588;DHT22;3835;48.850;8.938;2023-02-15T14:59:58;6.90;99.90
7588;DHT22;3835;48.850;8.938;2023-02-15T15:02:29;6.80;99.90
7588;DHT22;3835;48.850;8.938;2023-02-15T15:05:06;6.90;99.90
7588;DHT22;3835;48.850;8.938;2023-02-15T15:07:43;6.90;99.90
7588;DHT22;3835;48.850;8.938;2023-02-15T15:10:34;6.80;99.90
7588;DHT22;3835;48.850;8.938;2023-02-15T15:19:10;6.50;99.90
7588;DHT22;3835;48.850;8.938;2023-02-15T15:21:56;6.50;99.90
7588;DHT22;3835;48.850;8.938;2023-02-15T15:24:52;6.40;99.90
7588;DHT22;3835;48.850;8.938;2023-02-15T15:27:44;6.30;99.90
7588;DHT22;3835;48.850;8.938;2023-02-15T15:40:20;6.10;99.90
7588;DHT22;3835;48.850;8.938;2023-02-15T15:43:00;6.10;99.90
7588;DHT22;3835;48.850;8.938;2023-02-15T15:45:45;6.00;99.90
7588;DHT22;3835;48.850;8.938;2023-02-15T15:48:35;5.90;99.90
7588;DHT22;3835;48.850;8.938;2023-02-15T15:51:09;5.80;99.90
7588;DHT22;3835;48.850;8.938;2023-02-15T15:53:40;5.70;99.90
7588;DHT22;3835;48.850;8.938;2023-02-15T15:56:13;5.60;99.90
7588;DHT22;3835;48.850;8.938;2023-02-15T15:58:48;5.60;99.90
7588;DHT22;3835;48.850;8.938;2023-02-15T16:01:25;5.60;99.90
7588;DHT22;3835;48.850;8.938;2023-02-15T16:03:56;5.60;99.90
7588;DHT22;3835;48.850;8.938;2023-02-15T16:06:33;5.50;99.90
7588;DHT22;3835;48.850;8.938;2023-02-15T16:09:13;5.50;99.90
7588;DHT22;3835;48.850;8.938;2023-02-15T16:11:46;5.30;99.90
7588;DHT22;3835;48.850;8.938;2023-02-15T16:14:15;5.30;99.90
7588;DHT22;3835;48.850;8.938;2023-02-15T16:16:50;5.20;99.90
7588;DHT22;3835;48.850;8.938;2023-02-15T16:19:24;5.00;99.90
7588;DHT22;3835;48.850;8.938;2023-02-15T16:21:54;4.90;99.90
7588;DHT22;3835;48.850;8.938;2023-02-15T16:24:26;4.90;99.90
7588;DHT22;3835;48.850;8.938;2023-02-15T16:27:11;4.80;99.90
7588;DHT22;3835;48.850;8.938;2023-02-15T16:29:41;4.70;99.90
7588;DHT22;3835;48.850;8.938;2023-02-15T16:32:18;4.60;99.90
7588;DHT22;3835;48.850;8.938;2023-02-15T16:34:53;4.50;99.90
7588;DHT22;3835;48.850;8.938;2023-02-15T16:37:23;4.40;99.90
7588;DHT22;3835;48.850;8.938;2023-02-15T16:39:53;4.30;99.90
7588;DHT22;3835;48.850;8.938;2023-02-15T16:42:24;4.30;99.90
7588;DHT22;3835;48.850;8.938;2023-02-15T16:44:57;4.20;99.90
7588;DHT22;3835;48.850;8.938;2023-02-15T16:47:29;4.20;99.90
7588;DHT22;3835;48.850;8.938;2023-02-15T16:50:02;4.10;99.90
7588;DHT22;3835;48.850;8.938;2023-02-15T16:52:30;3.90;99.90
7588;DHT22;3835;48.850;8.938;2023-02-15T16:55:00;3.80;99.90
7588;DHT22;3835;48.850;8.938;2023-02-15T16:57:33;3.80;99.90
7588;DHT22;3835;48.850;8.938;2023-02-15T17:00:04;3.70;99.90
7588;DHT22;3835;48.850;8.938;2023-02-15T17:02:34;3.70;99.90